sensor_id;sensor_type;location;lat;lon;timestamp;P1;durP1;ratioP1;P2;durP2;ratioP2
44428;SDS011;30134;47.866;-4.222;2024-02-26T00:00:40;64.00;;;48.92;;
44428;SDS011;30134;47.866;-4.222;2024-02-26T00:03:06;59.55;;;48.58;;
44428;SDS011;30134;47.866;-4.222;2024-02-26T00:05:32;58.03;;;45.90;;
44428;SDS011;30134;47.866;-4.222;2024-02-26T00:07:58;57.60;;;47.33;;
44428;SDS011;30134;47.866;-4.222;2024-02-26T00:10:24;54.90;;;44.55;;
44428;SDS011;30134;47.866;-4.222;2024-02-26T00:12:50;56.55;;;45.17;;
44428;SDS011;30134;47.866;-4.222;2024-02-26T00:15:16;52.38;;;43.10;;
44428;SDS011;30134;47.866;-4.222;2024-02-26T00:17:42;52.85;;;41.95;;
44428;SDS011;30134;47.866;-4.222;2024-02-26T00:20:08;53.15;;;41.80;;
44428;SDS011;30134;47.866;-4.222;2024-02-26T00:22:36;50.25;;;40.45;;
44428;SDS011;30134;47.866;-4.222;2024-02-26T00:25:03;50.50;;;38.47;;
44428;SDS011;30134;47.866;-4.222;2024-02-26T00:27:30;48.05;;;38.17;;
44428;SDS011;30134;47.866;-4.222;2024-02-26T00:29:56;45.35;;;37.60;;
44428;SDS011;30134;47.866;-4.222;2024-02-26T00:32:22;42.63;;;34.80;;
44428;SDS011;30134;47.866;-4.222;2024-02-26T00:34:48;42.88;;;35.17;;
44428;SDS011;30134;47.866;-4.222;2024-02-26T00:37:14;42.28;;;33.63;;
44428;SDS011;30134;47.866;-4.222;2024-02-26T00:39:40;41.65;;;33.65;;
44428;SDS011;30134;47.866;-4.222;2024-02-26T00:42:07;38.13;;;31.80;;
44428;SDS011;30134;47.866;-4.222;2024-02-26T00:44:34;40.40;;;32.17;;
44428;SDS011;30134;47.866;-4.222;2024-02-26T00:47:00;36.88;;;30.45;;
44428;SDS011;30134;47.866;-4.222;2024-02-26T00:49:26;37.92;;;30.63;;
44428;SDS011;30134;47.866;-4.222;2024-02-26T00:51:52;38.10;;;31.15;;
44428;SDS011;30134;47.866;-4.222;2024-02-26T00:54:18;33.85;;;27.77;;
44428;SDS011;30134;47.866;-4.222;2024-02-26T00:56:44;34.13;;;28.50;;
44428;SDS011;30134;47.866;-4.222;2024-02-26T00:59:10;35.65;;;27.15;;
44428;SDS011;30134;47.866;-4.222;2024-02-26T01:01:36;32.78;;;27.02;;
44428;SDS011;30134;47.866;-4.222;2024-02-26T01:04:02;34.28;;;26.95;;
44428;SDS011;30134;47.866;-4.222;2024-02-26T01:06:34;33.08;;;25.73;;
44428;SDS011;30134;47.866;-4.222;2024-02-26T01:09:00;35.45;;;26.73;;
44428;SDS011;30134;47.866;-4.222;2024-02-26T01:11:26;29.33;;;25.08;;
44428;SDS011;30134;47.866;-4.222;2024-02-26T01:13:52;30.10;;;24.58;;
44428;SDS011;30134;47.866;-4.222;2024-02-26T01:16:22;30.70;;;23.55;;
44428;SDS011;30134;47.866;-4.222;2024-02-26T01:18:48;32.55;;;24.13;;
44428;SDS011;30134;47.866;-4.222;2024-02-26T01:21:14;29.00;;;22.73;;
44428;SDS011;30134;47.866;-4.222;2024-02-26T01:23:40;28.13;;;23.27;;
44428;SDS011;30134;47.866;-4.222;2024-02-26T01:26:07;26.38;;;21.33;;
44428;SDS011;30134;47.866;-4.222;2024-02-26T01:28:33;26.55;;;22.08;;
44428;SDS011;30134;47.866;-4.222;2024-02-26T01:30:59;27.85;;;21.05;;
44428;SDS011;30134;47.866;-4.222;2024-02-26T01:33:26;25.52;;;19.67;;
44428;SDS011;30134;47.866;-4.222;2024-02-26T01:35:51;25.13;;;20.65;;
44428;SDS011;30134;47.866;-4.222;2024-02-26T01:38:18;24.83;;;19.83;;
44428;SDS011;30134;47.866;-4.222;2024-02-26T01:40:44;24.40;;;18.90;;
44428;SDS011;30134;47.866;-4.222;2024-02-26T01:43:10;24.77;;;18.77;;
44428;SDS011;30134;47.866;-4.222;2024-02-26T01:45:36;22.73;;;18.25;;
44428;SDS011;30134;47.866;-4.222;2024-02-26T01:48:02;24.27;;;17.67;;
44428;SDS011;30134;47.866;-4.222;2024-02-26T01:50:28;20.98;;;17.25;;
44428;SDS011;30134;47.866;-4.222;2024-02-26T01:52:55;20.13;;;16.80;;
44428;SDS011;30134;47.866;-4.222;2024-02-26T01:55:22;21.85;;;17.35;;
44428;SDS011;30134;47.866;-4.222;2024-02-26T01:57:49;21.80;;;16.88;;
44428;SDS011;30134;47.866;-4.222;2024-02-26T02:00:17;19.17;;;16.45;;
44428;SDS011;30134;47.866;-4.222;2024-02-26T02:02:44;18.25;;;15.57;;
44428;SDS011;30134;47.866;-4.222;2024-02-26T02:05:13;20.85;;;15.38;;
44428;SDS011;30134;47.866;-4.222;2024-02-26T02:07:45;19.20;;;14.88;;
44428;SDS011;30134;47.866;-4.222;2024-02-26T02:10:13;18.17;;;14.85;;
44428;SDS011;30134;47.866;-4.222;2024-02-26T02:12:41;16.25;;;13.85;;
44428;SDS011;30134;47.866;-4.222;2024-02-26T02:15:08;16.10;;;13.50;;
44428;SDS011;30134;47.866;-4.222;2024-02-26T02:17:35;16.45;;;13.75;;
44428;SDS011;30134;47.866;-4.222;2024-02-26T02:20:01;18.50;;;14.13;;
44428;SDS011;30134;47.866;-4.222;2024-02-26T02:22:28;16.58;;;13.82;;
44428;SDS011;30134;47.866;-4.222;2024-02-26T02:24:57;16.60;;;13.23;;
44428;SDS011;30134;47.866;-4.222;2024-02-26T02:27:23;16.08;;;12.93;;
44428;SDS011;30134;47.866;-4.222;2024-02-26T02:29:50;16.13;;;13.20;;
44428;SDS011;30134;47.866;-4.222;2024-02-26T02:32:16;14.20;;;12.45;;
44428;SDS011;30134;47.866;-4.222;2024-02-26T02:34:43;14.40;;;11.82;;
44428;SDS011;30134;47.866;-4.222;2024-02-26T02:37:10;15.52;;;12.68;;
44428;SDS011;30134;47.866;-4.222;2024-02-26T02:39:35;14.15;;;11.82;;
44428;SDS011;30134;47.866;-4.222;2024-02-26T02:42:01;14.98;;;11.95;;
44428;SDS011;30134;47.866;-4.222;2024-02-26T02:44:28;13.88;;;11.00;;
44428;SDS011;30134;47.866;-4.222;2024-02-26T02:46:53;13.10;;;10.20;;
44428;SDS011;30134;47.866;-4.222;2024-02-26T02:49:19;14.43;;;10.73;;
44428;SDS011;30134;47.866;-4.222;2024-02-26T02:51:45;15.18;;;11.30;;
44428;SDS011;30134;47.866;-4.222;2024-02-26T02:54:11;12.48;;;9.93;;
44428;SDS011;30134;47.866;-4.222;2024-02-26T02:56:37;12.43;;;10.07;;
44428;SDS011;30134;47.866;-4.222;2024-02-26T02:59:05;13.02;;;10.20;;
44428;SDS011;30134;47.866;-4.222;2024-02-26T03:01:31;12.23;;;10.30;;
44428;SDS011;30134;47.866;-4.222;2024-02-26T03:03:57;11.40;;;9.43;;
44428;SDS011;30134;47.866;-4.222;2024-02-26T03:06:23;10.50;;;9.02;;
44428;SDS011;30134;47.866;-4.222;2024-02-26T03:08:51;11.13;;;9.18;;
44428;SDS011;30134;47.866;-4.222;2024-02-26T03:11:17;10.75;;;8.77;;
44428;SDS011;30134;47.866;-4.222;2024-02-26T03:13:44;11.68;;;9.13;;
44428;SDS011;30134;47.866;-4.222;2024-02-26T03:16:10;9.38;;;7.93;;
44428;SDS011;30134;47.866;-4.222;2024-02-26T03:18:39;10.85;;;8.75;;
44428;SDS011;30134;47.866;-4.222;2024-02-26T03:21:06;10.85;;;8.18;;
44428;SDS011;30134;47.866;-4.222;2024-02-26T03:23:32;9.13;;;7.57;;
44428;SDS011;30134;47.866;-4.222;2024-02-26T03:26:04;9.88;;;7.85;;
44428;SDS011;30134;47.866;-4.222;2024-02-26T03:28:30;10.82;;;7.55;;
44428;SDS011;30134;47.866;-4.222;2024-02-26T03:30:58;9.18;;;7.60;;
44428;SDS011;30134;47.866;-4.222;2024-02-26T03:33:26;8.95;;;7.32;;
44428;SDS011;30134;47.866;-4.222;2024-02-26T03:35:52;8.43;;;6.75;;
44428;SDS011;30134;47.866;-4.222;2024-02-26T03:38:18;7.78;;;6.30;;
44428;SDS011;30134;47.866;-4.222;2024-02-26T03:40:44;9.07;;;6.35;;
44428;SDS011;30134;47.866;-4.222;2024-02-26T03:43:10;8.35;;;7.45;;
44428;SDS011;30134;47.866;-4.222;2024-02-26T03:45:36;8.13;;;6.93;;
44428;SDS011;30134;47.866;-4.222;2024-02-26T03:48:02;7.75;;;6.25;;
44428;SDS011;30134;47.866;-4.222;2024-02-26T03:50:28;7.63;;;6.18;;
44428;SDS011;30134;47.866;-4.222;2024-02-26T03:52:54;6.55;;;5.40;;
44428;SDS011;30134;47.866;-4.222;2024-02-26T03:55:22;6.88;;;5.60;;
44428;SDS011;30134;47.866;-4.222;2024-02-26T03:57:53;7.25;;;5.25;;
44428;SDS011;30134;47.866;-4.222;2024-02-26T04:00:19;6.72;;;5.70;;
44428;SDS011;30134;47.866;-4.222;2024-02-26T04:02:48;7.07;;;5.60;;
44428;SDS011;30134;47.866;-4.222;2024-02-26T04:05:14;6.93;;;5.78;;
44428;SDS011;30134;47.866;-4.222;2024-02-26T04:07:41;7.75;;;5.20;;
44428;SDS011;30134;47.866;-4.222;2024-02-26T04:10:10;7.30;;;5.32;;
44428;SDS011;30134;47.866;-4.222;2024-02-26T04:12:40;6.55;;;5.00;;
44428;SDS011;30134;47.866;-4.222;2024-02-26T04:15:10;6.25;;;4.95;;
44428;SDS011;30134;47.866;-4.222;2024-02-26T04:17:36;6.45;;;5.05;;
44428;SDS011;30134;47.866;-4.222;2024-02-26T04:20:03;5.18;;;4.65;;
44428;SDS011;30134;47.866;-4.222;2024-02-26T04:22:30;7.43;;;5.50;;
44428;SDS011;30134;47.866;-4.222;2024-02-26T04:24:57;5.65;;;4.00;;
44428;SDS011;30134;47.866;-4.222;2024-02-26T04:27:23;4.88;;;4.28;;
44428;SDS011;30134;47.866;-4.222;2024-02-26T04:29:49;4.53;;;3.88;;
44428;SDS011;30134;47.866;-4.222;2024-02-26T04:32:15;4.75;;;4.03;;
44428;SDS011;30134;47.866;-4.222;2024-02-26T04:34:41;5.57;;;4.40;;
44428;SDS011;30134;47.866;-4.222;2024-02-26T04:37:08;4.97;;;3.80;;
44428;SDS011;30134;47.866;-4.222;2024-02-26T04:39:34;6.20;;;4.15;;
44428;SDS011;30134;47.866;-4.222;2024-02-26T04:41:59;5.72;;;3.88;;
44428;SDS011;30134;47.866;-4.222;2024-02-26T04:44:28;5.57;;;4.13;;
44428;SDS011;30134;47.866;-4.222;2024-02-26T04:46:55;5.40;;;4.35;;
44428;SDS011;30134;47.866;-4.222;2024-02-26T04:49:21;4.75;;;3.88;;
44428;SDS011;30134;47.866;-4.222;2024-02-26T04:51:47;5.40;;;3.88;;
44428;SDS011;30134;47.866;-4.222;2024-02-26T04:54:13;4.55;;;3.72;;
44428;SDS011;30134;47.866;-4.222;2024-02-26T04:56:39;3.83;;;3.40;;
44428;SDS011;30134;47.866;-4.222;2024-02-26T04:59:05;3.95;;;3.28;;
44428;SDS011;30134;47.866;-4.222;2024-02-26T05:01:31;4.15;;;3.25;;
44428;SDS011;30134;47.866;-4.222;2024-02-26T05:03:57;4.25;;;3.40;;
44428;SDS011;30134;47.866;-4.222;2024-02-26T05:06:23;5.35;;;3.15;;
44428;SDS011;30134;47.866;-4.222;2024-02-26T05:08:49;11.52;;;3.92;;
44428;SDS011;30134;47.866;-4.222;2024-02-26T05:11:15;9.43;;;8.02;;
44428;SDS011;30134;47.866;-4.222;2024-02-26T05:13:43;22.92;;;18.95;;
44428;SDS011;30134;47.866;-4.222;2024-02-26T05:16:10;38.95;;;31.50;;
44428;SDS011;30134;47.866;-4.222;2024-02-26T05:18:36;44.85;;;37.15;;
44428;SDS011;30134;47.866;-4.222;2024-02-26T05:21:02;47.00;;;39.20;;
44428;SDS011;30134;47.866;-4.222;2024-02-26T05:23:28;46.90;;;39.92;;
44428;SDS011;30134;47.866;-4.222;2024-02-26T05:25:55;49.75;;;38.53;;
44428;SDS011;30134;47.866;-4.222;2024-02-26T05:28:21;47.60;;;37.42;;
44428;SDS011;30134;47.866;-4.222;2024-02-26T05:30:47;45.17;;;37.03;;
44428;SDS011;30134;47.866;-4.222;2024-02-26T05:33:13;43.63;;;35.58;;
44428;SDS011;30134;47.866;-4.222;2024-02-26T05:35:39;41.08;;;34.50;;
44428;SDS011;30134;47.866;-4.222;2024-02-26T05:38:05;41.17;;;34.03;;
44428;SDS011;30134;47.866;-4.222;2024-02-26T05:40:31;42.65;;;34.78;;
44428;SDS011;30134;47.866;-4.222;2024-02-26T05:42:57;39.50;;;33.50;;
44428;SDS011;30134;47.866;-4.222;2024-02-26T05:45:23;38.85;;;31.98;;
44428;SDS011;30134;47.866;-4.222;2024-02-26T05:47:49;36.92;;;30.00;;
44428;SDS011;30134;47.866;-4.222;2024-02-26T05:50:15;37.03;;;30.60;;
44428;SDS011;30134;47.866;-4.222;2024-02-26T05:52:41;35.80;;;29.55;;
44428;SDS011;30134;47.866;-4.222;2024-02-26T05:55:08;34.60;;;28.08;;
44428;SDS011;30134;47.866;-4.222;2024-02-26T05:57:34;32.88;;;26.90;;
44428;SDS011;30134;47.866;-4.222;2024-02-26T06:00:01;32.83;;;27.20;;
44428;SDS011;30134;47.866;-4.222;2024-02-26T06:02:31;33.30;;;27.23;;
44428;SDS011;30134;47.866;-4.222;2024-02-26T06:04:57;30.45;;;25.65;;
44428;SDS011;30134;47.866;-4.222;2024-02-26T06:07:24;30.30;;;24.25;;
44428;SDS011;30134;47.866;-4.222;2024-02-26T06:09:50;29.08;;;24.17;;
44428;SDS011;30134;47.866;-4.222;2024-02-26T06:12:16;27.20;;;22.30;;
44428;SDS011;30134;47.866;-4.222;2024-02-26T06:14:42;27.15;;;21.73;;
44428;SDS011;30134;47.866;-4.222;2024-02-26T06:17:08;29.33;;;23.42;;
44428;SDS011;30134;47.866;-4.222;2024-02-26T06:19:34;27.88;;;22.88;;
44428;SDS011;30134;47.866;-4.222;2024-02-26T06:22:00;25.83;;;21.48;;
44428;SDS011;30134;47.866;-4.222;2024-02-26T06:24:26;29.20;;;22.45;;
44428;SDS011;30134;47.866;-4.222;2024-02-26T06:26:52;36.72;;;30.73;;
44428;SDS011;30134;47.866;-4.222;2024-02-26T06:29:18;69.43;;;55.58;;
44428;SDS011;30134;47.866;-4.222;2024-02-26T06:31:44;84.28;;;69.90;;
44428;SDS011;30134;47.866;-4.222;2024-02-26T06:34:10;105.13;;;81.93;;
44428;SDS011;30134;47.866;-4.222;2024-02-26T06:36:36;98.90;;;81.30;;
44428;SDS011;30134;47.866;-4.222;2024-02-26T06:39:02;92.50;;;75.72;;
44428;SDS011;30134;47.866;-4.222;2024-02-26T06:41:30;92.95;;;76.93;;
44428;SDS011;30134;47.866;-4.222;2024-02-26T06:43:56;86.28;;;71.32;;
44428;SDS011;30134;47.866;-4.222;2024-02-26T06:46:22;83.60;;;68.55;;
44428;SDS011;30134;47.866;-4.222;2024-02-26T06:48:49;79.97;;;62.58;;
44428;SDS011;30134;47.866;-4.222;2024-02-26T06:51:16;73.40;;;61.00;;
44428;SDS011;30134;47.866;-4.222;2024-02-26T06:53:43;73.65;;;59.30;;
44428;SDS011;30134;47.866;-4.222;2024-02-26T06:56:09;98.88;;;77.53;;
44428;SDS011;30134;47.866;-4.222;2024-02-26T06:58:34;122.82;;;98.85;;
44428;SDS011;30134;47.866;-4.222;2024-02-26T07:01:00;145.27;;;112.40;;
44428;SDS011;30134;47.866;-4.222;2024-02-26T07:03:26;152.73;;;122.32;;
44428;SDS011;30134;47.866;-4.222;2024-02-26T07:05:53;142.55;;;114.43;;
44428;SDS011;30134;47.866;-4.222;2024-02-26T07:08:18;136.27;;;109.45;;
44428;SDS011;30134;47.866;-4.222;2024-02-26T07:10:44;131.32;;;105.38;;
44428;SDS011;30134;47.866;-4.222;2024-02-26T07:13:11;128.43;;;100.35;;
44428;SDS011;30134;47.866;-4.222;2024-02-26T07:15:45;121.47;;;96.10;;
44428;SDS011;30134;47.866;-4.222;2024-02-26T07:18:24;109.93;;;89.88;;
44428;SDS011;30134;47.866;-4.222;2024-02-26T07:20:50;109.60;;;88.60;;
44428;SDS011;30134;47.866;-4.222;2024-02-26T07:23:17;108.93;;;86.38;;
44428;SDS011;30134;47.866;-4.222;2024-02-26T07:25:43;106.03;;;84.32;;
44428;SDS011;30134;47.866;-4.222;2024-02-26T07:28:09;106.15;;;83.97;;
44428;SDS011;30134;47.866;-4.222;2024-02-26T07:30:36;101.95;;;80.38;;
44428;SDS011;30134;47.866;-4.222;2024-02-26T07:33:01;98.75;;;78.65;;
44428;SDS011;30134;47.866;-4.222;2024-02-26T07:35:28;96.10;;;76.75;;
44428;SDS011;30134;47.866;-4.222;2024-02-26T07:37:54;92.82;;;73.05;;
44428;SDS011;30134;47.866;-4.222;2024-02-26T07:40:19;91.40;;;74.65;;
44428;SDS011;30134;47.866;-4.222;2024-02-26T07:42:45;92.13;;;73.10;;
44428;SDS011;30134;47.866;-4.222;2024-02-26T07:45:11;87.22;;;69.22;;
44428;SDS011;30134;47.866;-4.222;2024-02-26T07:47:37;86.03;;;66.60;;
44428;SDS011;30134;47.866;-4.222;2024-02-26T07:50:06;81.30;;;65.72;;
44428;SDS011;30134;47.866;-4.222;2024-02-26T07:52:33;82.70;;;64.50;;
44428;SDS011;30134;47.866;-4.222;2024-02-26T07:54:59;77.07;;;60.38;;
44428;SDS011;30134;47.866;-4.222;2024-02-26T07:57:26;73.25;;;58.20;;
44428;SDS011;30134;47.866;-4.222;2024-02-26T07:59:51;70.85;;;56.92;;
44428;SDS011;30134;47.866;-4.222;2024-02-26T08:02:17;65.55;;;53.97;;
44428;SDS011;30134;47.866;-4.222;2024-02-26T08:04:43;65.93;;;54.22;;
44428;SDS011;30134;47.866;-4.222;2024-02-26T08:07:09;66.03;;;53.17;;
44428;SDS011;30134;47.866;-4.222;2024-02-26T08:09:35;59.33;;;48.45;;
44428;SDS011;30134;47.866;-4.222;2024-02-26T08:12:01;62.92;;;50.20;;
44428;SDS011;30134;47.866;-4.222;2024-02-26T08:14:27;65.88;;;51.17;;
44428;SDS011;30134;47.866;-4.222;2024-02-26T08:16:53;62.75;;;49.70;;
44428;SDS011;30134;47.866;-4.222;2024-02-26T08:19:19;59.78;;;47.38;;
44428;SDS011;30134;47.866;-4.222;2024-02-26T08:21:46;57.60;;;45.83;;
44428;SDS011;30134;47.866;-4.222;2024-02-26T08:24:12;54.33;;;44.50;;
44428;SDS011;30134;47.866;-4.222;2024-02-26T08:26:38;54.95;;;44.78;;
44428;SDS011;30134;47.866;-4.222;2024-02-26T08:29:04;51.90;;;42.33;;
44428;SDS011;30134;47.866;-4.222;2024-02-26T08:31:30;52.38;;;41.35;;
44428;SDS011;30134;47.866;-4.222;2024-02-26T08:33:56;51.85;;;41.47;;
44428;SDS011;30134;47.866;-4.222;2024-02-26T08:36:23;47.65;;;37.55;;
44428;SDS011;30134;47.866;-4.222;2024-02-26T08:38:49;46.58;;;38.05;;
44428;SDS011;30134;47.866;-4.222;2024-02-26T08:41:15;47.63;;;37.10;;
44428;SDS011;30134;47.866;-4.222;2024-02-26T08:43:41;44.45;;;36.67;;
44428;SDS011;30134;47.866;-4.222;2024-02-26T08:46:10;44.40;;;36.08;;
44428;SDS011;30134;47.866;-4.222;2024-02-26T08:48:38;44.13;;;35.08;;
44428;SDS011;30134;47.866;-4.222;2024-02-26T08:51:08;47.10;;;36.30;;
44428;SDS011;30134;47.866;-4.222;2024-02-26T08:53:35;45.90;;;35.55;;
44428;SDS011;30134;47.866;-4.222;2024-02-26T08:56:01;41.70;;;33.10;;
44428;SDS011;30134;47.866;-4.222;2024-02-26T08:58:28;47.65;;;31.73;;
44428;SDS011;30134;47.866;-4.222;2024-02-26T09:00:56;38.03;;;29.60;;
44428;SDS011;30134;47.866;-4.222;2024-02-26T09:03:23;36.38;;;27.10;;
44428;SDS011;30134;47.866;-4.222;2024-02-26T09:05:49;33.08;;;25.80;;
44428;SDS011;30134;47.866;-4.222;2024-02-26T09:08:15;57.20;;;44.92;;
44428;SDS011;30134;47.866;-4.222;2024-02-26T09:10:41;68.47;;;52.92;;
44428;SDS011;30134;47.866;-4.222;2024-02-26T09:13:07;72.80;;;54.17;;
44428;SDS011;30134;47.866;-4.222;2024-02-26T09:15:33;68.03;;;52.15;;
44428;SDS011;30134;47.866;-4.222;2024-02-26T09:17:59;68.90;;;55.53;;
44428;SDS011;30134;47.866;-4.222;2024-02-26T09:20:26;73.10;;;57.30;;
44428;SDS011;30134;47.866;-4.222;2024-02-26T09:22:52;73.63;;;57.20;;
44428;SDS011;30134;47.866;-4.222;2024-02-26T09:25:18;69.38;;;56.28;;
44428;SDS011;30134;47.866;-4.222;2024-02-26T09:27:44;69.40;;;55.30;;
44428;SDS011;30134;47.866;-4.222;2024-02-26T09:30:11;69.00;;;53.90;;
44428;SDS011;30134;47.866;-4.222;2024-02-26T09:32:39;61.35;;;50.92;;
44428;SDS011;30134;47.866;-4.222;2024-02-26T09:35:08;59.15;;;47.22;;
44428;SDS011;30134;47.866;-4.222;2024-02-26T09:37:34;59.05;;;46.72;;
44428;SDS011;30134;47.866;-4.222;2024-02-26T09:40:02;56.05;;;44.75;;
44428;SDS011;30134;47.866;-4.222;2024-02-26T09:42:30;54.10;;;43.53;;
44428;SDS011;30134;47.866;-4.222;2024-02-26T09:45:00;52.10;;;40.58;;
44428;SDS011;30134;47.866;-4.222;2024-02-26T09:47:29;52.78;;;42.08;;
44428;SDS011;30134;47.866;-4.222;2024-02-26T09:49:57;48.83;;;39.85;;
44428;SDS011;30134;47.866;-4.222;2024-02-26T09:52:27;46.67;;;36.90;;
44428;SDS011;30134;47.866;-4.222;2024-02-26T09:54:56;61.65;;;45.08;;
44428;SDS011;30134;47.866;-4.222;2024-02-26T09:57:22;60.38;;;49.72;;
44428;SDS011;30134;47.866;-4.222;2024-02-26T09:59:50;64.32;;;48.67;;
44428;SDS011;30134;47.866;-4.222;2024-02-26T10:02:18;67.10;;;53.85;;
44428;SDS011;30134;47.866;-4.222;2024-02-26T10:04:46;85.85;;;65.43;;
44428;SDS011;30134;47.866;-4.222;2024-02-26T10:07:16;91.43;;;73.13;;
44428;SDS011;30134;47.866;-4.222;2024-02-26T10:09:42;93.80;;;77.13;;
44428;SDS011;30134;47.866;-4.222;2024-02-26T10:12:10;96.15;;;76.60;;
44428;SDS011;30134;47.866;-4.222;2024-02-26T10:14:40;91.00;;;73.32;;
44428;SDS011;30134;47.866;-4.222;2024-02-26T10:17:09;87.07;;;70.50;;
44428;SDS011;30134;47.866;-4.222;2024-02-26T10:19:36;82.78;;;68.45;;
44428;SDS011;30134;47.866;-4.222;2024-02-26T10:22:02;85.85;;;67.90;;
44428;SDS011;30134;47.866;-4.222;2024-02-26T10:24:29;82.70;;;64.47;;
44428;SDS011;30134;47.866;-4.222;2024-02-26T10:26:56;72.55;;;60.17;;
44428;SDS011;30134;47.866;-4.222;2024-02-26T10:29:23;75.07;;;59.60;;
44428;SDS011;30134;47.866;-4.222;2024-02-26T10:31:50;66.78;;;55.33;;
44428;SDS011;30134;47.866;-4.222;2024-02-26T10:34:18;66.32;;;54.67;;
44428;SDS011;30134;47.866;-4.222;2024-02-26T10:36:44;65.55;;;53.75;;
44428;SDS011;30134;47.866;-4.222;2024-02-26T10:39:11;68.18;;;53.47;;
44428;SDS011;30134;47.866;-4.222;2024-02-26T10:41:39;60.22;;;49.35;;
44428;SDS011;30134;47.866;-4.222;2024-02-26T10:44:10;58.25;;;48.28;;
44428;SDS011;30134;47.866;-4.222;2024-02-26T10:46:38;59.55;;;49.15;;
44428;SDS011;30134;47.866;-4.222;2024-02-26T10:49:16;56.75;;;46.38;;
44428;SDS011;30134;47.866;-4.222;2024-02-26T10:51:45;54.25;;;44.78;;
44428;SDS011;30134;47.866;-4.222;2024-02-26T10:54:24;51.58;;;44.22;;
44428;SDS011;30134;47.866;-4.222;2024-02-26T10:56:55;54.25;;;44.30;;
44428;SDS011;30134;47.866;-4.222;2024-02-26T10:59:22;52.40;;;44.25;;
44428;SDS011;30134;47.866;-4.222;2024-02-26T11:01:49;50.40;;;41.30;;
44428;SDS011;30134;47.866;-4.222;2024-02-26T11:04:16;51.15;;;41.45;;
44428;SDS011;30134;47.866;-4.222;2024-02-26T11:06:44;54.58;;;42.28;;
44428;SDS011;30134;47.866;-4.222;2024-02-26T11:09:12;47.72;;;39.63;;
44428;SDS011;30134;47.866;-4.222;2024-02-26T11:11:41;50.50;;;39.92;;
44428;SDS011;30134;47.866;-4.222;2024-02-26T11:14:08;72.22;;;57.53;;
44428;SDS011;30134;47.866;-4.222;2024-02-26T11:16:35;74.55;;;59.85;;
44428;SDS011;30134;47.866;-4.222;2024-02-26T11:19:02;72.78;;;58.83;;
44428;SDS011;30134;47.866;-4.222;2024-02-26T11:21:29;79.68;;;64.45;;
44428;SDS011;30134;47.866;-4.222;2024-02-26T11:24:04;86.30;;;66.63;;
44428;SDS011;30134;47.866;-4.222;2024-02-26T11:26:34;80.13;;;65.55;;
44428;SDS011;30134;47.866;-4.222;2024-02-26T11:29:10;78.95;;;64.47;;
44428;SDS011;30134;47.866;-4.222;2024-02-26T11:31:38;80.35;;;64.28;;
44428;SDS011;30134;47.866;-4.222;2024-02-26T11:34:18;76.25;;;61.92;;
44428;SDS011;30134;47.866;-4.222;2024-02-26T11:36:45;79.15;;;61.25;;
44428;SDS011;30134;47.866;-4.222;2024-02-26T11:39:12;72.95;;;58.55;;
44428;SDS011;30134;47.866;-4.222;2024-02-26T11:41:41;71.15;;;58.20;;
44428;SDS011;30134;47.866;-4.222;2024-02-26T11:44:08;69.65;;;55.30;;
44428;SDS011;30134;47.866;-4.222;2024-02-26T11:46:41;69.80;;;54.85;;
44428;SDS011;30134;47.866;-4.222;2024-02-26T11:51:53;64.88;;;53.00;;
44428;SDS011;30134;47.866;-4.222;2024-02-26T11:57:21;63.60;;;52.13;;
44428;SDS011;30134;47.866;-4.222;2024-02-26T12:02:40;59.28;;;48.13;;
44428;SDS011;30134;47.866;-4.222;2024-02-26T12:05:21;60.88;;;48.30;;
44428;SDS011;30134;47.866;-4.222;2024-02-26T12:07:59;60.55;;;48.85;;
44428;SDS011;30134;47.866;-4.222;2024-02-26T12:10:38;58.58;;;46.08;;
44428;SDS011;30134;47.866;-4.222;2024-02-26T12:13:10;55.95;;;45.13;;
44428;SDS011;30134;47.866;-4.222;2024-02-26T12:15:44;53.55;;;43.05;;
44428;SDS011;30134;47.866;-4.222;2024-02-26T12:18:20;55.08;;;41.67;;
44428;SDS011;30134;47.866;-4.222;2024-02-26T12:20:56;53.58;;;42.10;;
44428;SDS011;30134;47.866;-4.222;2024-02-26T12:23:28;50.95;;;40.47;;
44428;SDS011;30134;47.866;-4.222;2024-02-26T12:25:59;50.58;;;40.03;;
44428;SDS011;30134;47.866;-4.222;2024-02-26T12:28:29;51.05;;;40.75;;
44428;SDS011;30134;47.866;-4.222;2024-02-26T12:30:55;50.40;;;38.03;;
44428;SDS011;30134;47.866;-4.222;2024-02-26T12:33:24;51.97;;;38.45;;
44428;SDS011;30134;47.866;-4.222;2024-02-26T12:35:51;49.55;;;40.95;;
44428;SDS011;30134;47.866;-4.222;2024-02-26T12:38:18;59.83;;;45.28;;
44428;SDS011;30134;47.866;-4.222;2024-02-26T12:40:45;63.00;;;48.38;;
44428;SDS011;30134;47.866;-4.222;2024-02-26T12:43:11;62.28;;;49.20;;
44428;SDS011;30134;47.866;-4.222;2024-02-26T12:45:41;67.68;;;51.72;;
44428;SDS011;30134;47.866;-4.222;2024-02-26T12:48:09;74.25;;;58.05;;
44428;SDS011;30134;47.866;-4.222;2024-02-26T12:50:36;80.53;;;63.85;;
44428;SDS011;30134;47.866;-4.222;2024-02-26T12:53:02;92.93;;;74.40;;
44428;SDS011;30134;47.866;-4.222;2024-02-26T12:55:29;96.57;;;75.88;;
44428;SDS011;30134;47.866;-4.222;2024-02-26T12:57:56;100.82;;;81.18;;
44428;SDS011;30134;47.866;-4.222;2024-02-26T13:00:25;107.82;;;80.97;;
44428;SDS011;30134;47.866;-4.222;2024-02-26T13:02:53;99.00;;;78.85;;
44428;SDS011;30134;47.866;-4.222;2024-02-26T13:05:20;97.75;;;78.55;;
44428;SDS011;30134;47.866;-4.222;2024-02-26T13:07:47;93.72;;;75.72;;
44428;SDS011;30134;47.866;-4.222;2024-02-26T13:10:14;89.38;;;72.43;;
44428;SDS011;30134;47.866;-4.222;2024-02-26T13:12:43;91.55;;;74.38;;
44428;SDS011;30134;47.866;-4.222;2024-02-26T13:15:14;93.15;;;73.85;;
44428;SDS011;30134;47.866;-4.222;2024-02-26T13:17:48;84.53;;;70.53;;
44428;SDS011;30134;47.866;-4.222;2024-02-26T13:20:27;87.70;;;69.53;;
44428;SDS011;30134;47.866;-4.222;2024-02-26T13:23:04;80.22;;;65.65;;
44428;SDS011;30134;47.866;-4.222;2024-02-26T13:25:31;80.50;;;64.10;;
44428;SDS011;30134;47.866;-4.222;2024-02-26T13:28:07;79.50;;;61.85;;
44428;SDS011;30134;47.866;-4.222;2024-02-26T13:33:10;76.00;;;60.53;;
44428;SDS011;30134;47.866;-4.222;2024-02-26T13:35:38;74.75;;;60.83;;
44428;SDS011;30134;47.866;-4.222;2024-02-26T13:38:05;77.43;;;61.08;;
44428;SDS011;30134;47.866;-4.222;2024-02-26T13:40:32;70.43;;;56.15;;
44428;SDS011;30134;47.866;-4.222;2024-02-26T13:42:59;73.10;;;56.33;;
44428;SDS011;30134;47.866;-4.222;2024-02-26T13:45:26;64.68;;;53.90;;
44428;SDS011;30134;47.866;-4.222;2024-02-26T13:47:52;65.88;;;53.15;;
44428;SDS011;30134;47.866;-4.222;2024-02-26T13:50:18;67.30;;;52.78;;
44428;SDS011;30134;47.866;-4.222;2024-02-26T13:52:48;62.88;;;50.67;;
44428;SDS011;30134;47.866;-4.222;2024-02-26T13:55:18;61.80;;;49.63;;
44428;SDS011;30134;47.866;-4.222;2024-02-26T13:57:45;60.20;;;49.17;;
44428;SDS011;30134;47.866;-4.222;2024-02-26T14:00:11;58.20;;;45.78;;
44428;SDS011;30134;47.866;-4.222;2024-02-26T14:02:38;53.80;;;44.13;;
44428;SDS011;30134;47.866;-4.222;2024-02-26T14:05:04;56.90;;;45.00;;
44428;SDS011;30134;47.866;-4.222;2024-02-26T14:07:31;53.30;;;42.22;;
44428;SDS011;30134;47.866;-4.222;2024-02-26T14:09:57;55.22;;;42.28;;
44428;SDS011;30134;47.866;-4.222;2024-02-26T14:12:24;50.35;;;41.70;;
44428;SDS011;30134;47.866;-4.222;2024-02-26T14:14:50;50.35;;;40.20;;
44428;SDS011;30134;47.866;-4.222;2024-02-26T14:17:18;49.10;;;39.10;;
44428;SDS011;30134;47.866;-4.222;2024-02-26T14:19:44;50.05;;;39.58;;
44428;SDS011;30134;47.866;-4.222;2024-02-26T14:22:12;48.38;;;38.25;;